Time;durP1;ratioP1;P1;durP2;ratioP2;P2;SDS_P1;SDS_P2;PMS_P1;PMS_P2;Temp;Humidity;BMP_temperature;BMP_pressure;BME280_temperature;BME280_humidity;BME280_pressure;Samples;Min_cycle;Max_cycle;Signal;HPM_P1;HPM_P2
2023/12/05 00:00:58;;;;;;;14.43;10.63;;;;;;;1.10;100.00;95789.81;5076012;28;20202;-52
2023/12/05 00:03:32;;;;;;;15.07;10.73;;;;;;;1.11;100.00;95783.66;5076248;28;20368;-53
2023/12/05 00:05:59;;;;;;;12.77;10.20;;;;;;;1.12;100.00;95783.56;5076433;28;20530;-54
2023/12/05 00:08:25;;;;;;;13.10;10.30;;;;;;;1.16;100.00;95784.19;5075542;28;20257;-54
2023/12/05 00:10:54;;;;;;;14.57;11.03;;;;;;;1.20;100.00;95770.84;5076659;28;20517;-54
2023/12/05 00:13:21;;;;;;;13.13;10.33;;;;;;;1.18;100.00;95766.66;5075397;28;20210;-55
2023/12/05 00:15:51;;;;;;;11.40;10.07;;;;;;;1.20;100.00;95770.84;5075605;28;20210;-52
2023/12/05 00:18:18;;;;;;;12.90;10.47;;;;;;;1.22;100.00;95760.31;5075454;28;20209;-52
2023/12/05 00:20:49;;;;;;;11.23;9.60;;;;;;;1.26;100.00;95764.38;5078804;28;20210;-54
2023/12/05 00:23:18;;;;;;;11.93;10.17;;;;;;;1.28;100.00;95767.69;5064888;28;20211;-53
2023/12/05 00:25:44;;;;;;;12.07;10.03;;;;;;;1.34;100.00;95772.47;5075504;28;20572;-53
2023/12/05 00:28:11;;;;;;;12.40;10.63;;;;;;;1.31;100.00;95763.09;5075246;28;20678;-53
2023/12/05 00:30:38;;;;;;;12.77;10.50;;;;;;;1.31;100.00;95763.09;5075457;28;20216;-53
2023/12/05 00:33:06;;;;;;;12.20;9.77;;;;;;;1.33;100.00;95766.44;5075118;28;20217;-54
2023/12/05 00:35:33;;;;;;;11.37;10.27;;;;;;;1.28;100.00;95754.66;5075800;28;20213;-54
2023/12/05 00:38:04;;;;;;;11.83;10.40;;;;;;;1.33;100.00;95763.84;5075077;28;20205;-53
2023/12/05 00:40:30;;;;;;;14.13;10.67;;;;;;;1.31;100.00;95767.50;5075507;28;20285;-53
2023/12/05 00:42:57;;;;;;;12.03;10.13;;;;;;;1.27;100.00;95760.84;5075126;28;20523;-53
2023/12/05 00:45:24;;;;;;;12.53;10.47;;;;;;;1.25;100.00;95762.69;5083591;28;20253;-53
2023/12/05 00:47:53;;;;;;;10.30;9.27;;;;;;;1.30;100.00;95761.44;5072929;28;20294;-52
2023/12/05 00:50:19;;;;;;;9.83;8.83;;;;;;;1.31;100.00;95757.06;5075310;28;20210;-53
2023/12/05 00:52:46;;;;;;;10.17;8.83;;;;;;;1.26;100.00;95756.56;5074783;28;20234;-54
2023/12/05 00:55:18;;;;;;;10.00;8.90;;;;;;;1.26;100.00;95764.38;5075367;28;20202;-52
2023/12/05 00:57:47;;;;;;;9.47;8.47;;;;;;;1.26;100.00;95753.94;5074751;28;20631;-53
2023/12/05 01:00:14;;;;;;;10.20;9.10;;;;;;;1.30;100.00;95750.19;5073805;28;20206;-52
2023/12/05 01:02:41;;;;;;;10.83;9.03;;;;;;;1.31;100.00;95750.06;5074315;28;20238;-53
2023/12/05 01:05:09;;;;;;;11.17;9.47;;;;;;;1.30;100.00;95755.41;5074930;28;20297;-51
2023/12/05 01:07:37;;;;;;;9.97;8.97;;;;;;;1.28;100.00;95752.06;5074587;28;20210;-53
2023/12/05 01:10:04;;;;;;;10.30;9.23;;;;;;;1.24;100.00;95745.44;5075184;28;20275;-51
2023/12/05 01:12:32;;;;;;;10.43;8.73;;;;;;;1.26;100.00;95744.38;5075775;28;20289;-51
2023/12/05 01:14:59;;;;;;;10.90;9.43;;;;;;;1.30;100.00;95750.19;5074870;28;20301;-52
2023/12/05 01:17:27;;;;;;;13.33;9.90;;;;;;;1.26;100.00;95738.31;5073693;28;20205;-54
2023/12/05 01:19:54;;;;;;;11.10;9.80;;;;;;;1.23;100.00;95738.53;5074966;28;20210;-53
2023/12/05 01:22:21;;;;;;;11.13;9.93;;;;;;;1.30;100.00;95750.19;5074636;28;20202;-52
2023/12/05 01:24:53;;;;;;;10.80;9.00;;;;;;;1.26;100.00;95753.94;5074826;28;20205;-52
2023/12/05 01:27:20;;;;;;;8.20;7.40;;;;;;;1.25;100.00;95754.88;5075392;28;20208;-52
2023/12/05 01:29:48;;;;;;;10.13;8.13;;;;;;;1.27;100.00;95750.41;5074653;28;20229;-52
2023/12/05 01:32:15;;;;;;;8.00;7.20;;;;;;;1.25;100.00;95755.72;5072434;28;20201;-52
2023/12/05 01:34:41;;;;;;;8.80;7.97;;;;;;;1.25;100.00;95767.91;5075137;28;20221;-54
2023/12/05 01:37:09;;;;;;;8.03;7.23;;;;;;;1.28;100.00;95773.72;5075713;28;20239;-53
2023/12/05 01:39:36;;;;;;;8.97;8.03;;;;;;;1.19;100.00;95773.56;5074391;28;20292;-54
2023/12/05 01:42:04;;;;;;;7.57;6.87;;;;;;;1.22;100.00;95784.59;5081669;28;20209;-52
2023/12/05 01:44:32;;;;;;;8.40;7.53;;;;;;;1.18;100.00;95792.72;5088639;28;20261;-54
2023/12/05 01:47:00;;;;;;;9.80;8.80;;;;;;;1.15;100.00;95779.91;5086425;28;20235;-54
2023/12/05 01:49:33;;;;;;;8.53;7.73;;;;;;;1.12;100.00;95777.53;5088266;28;20257;-54
2023/12/05 01:52:01;;;;;;;8.23;7.33;;;;;;;1.10;100.00;95784.63;5087562;28;20285;-53
2023/12/05 01:54:33;;;;;;;9.17;8.27;;;;;;;1.07;100.00;95787.41;5087857;28;20224;-52
2023/12/05 01:57:01;;;;;;;8.40;7.53;;;;;;;0.98;100.00;95787.13;5082936;28;20215;-53
2023/12/05 01:59:27;;;;;;;7.40;6.60;;;;;;;0.95;100.00;95779.53;5077224;28;20267;-54
2023/12/05 02:01:56;;;;;;;7.30;6.60;;;;;;;0.96;100.00;95773.38;5074583;28;20242;-53
2023/12/05 02:04:25;;;;;;;7.00;6.33;;;;;;;0.96;100.00;95772.53;5087167;28;20206;-53
2023/12/05 02:06:52;;;;;;;7.87;7.10;;;;;;;0.98;100.00;95776.72;5097984;28;20221;-54
2023/12/05 02:09:20;;;;;;;8.57;7.67;;;;;;;0.96;100.00;95768.16;5097510;28;20292;-53
2023/12/05 02:11:47;;;;;;;7.47;6.87;;;;;;;0.93;100.00;95762.34;5087473;28;20198;-54
2023/12/05 02:14:15;;;;;;;6.60;6.00;;;;;;;0.99;100.00;95765.34;5096087;28;20189;-54
2023/12/05 02:16:50;;;;;;;7.00;6.30;;;;;;;1.05;100.00;95763.28;5100868;28;20252;-54
2023/12/05 02:19:55;;;;;;;7.03;6.33;;;;;;;0.99;100.00;95754.94;5101461;28;20193;-54
2023/12/05 02:22:36;;;;;;;6.43;5.83;;;;;;;1.01;100.00;95754.84;5076089;28;20208;-52
2023/12/05 02:25:13;;;;;;;5.67;5.13;;;;;;;1.09;100.00;95756.91;5093274;28;20273;-53
2023/12/05 02:27:43;;;;;;;6.43;5.83;;;;;;;1.10;100.00;95729.94;5097581;28;20207;-54
2023/12/05 02:30:11;;;;;;;6.07;5.47;;;;;;;1.09;100.00;95743.91;5100687;28;20209;-53
2023/12/05 02:32:38;;;;;;;5.97;5.40;;;;;;;1.09;100.00;95744.72;5114550;28;20189;-53
2023/12/05 02:35:06;;;;;;;6.13;5.53;;;;;;;1.11;100.00;95750.66;5100610;28;20234;-54
2023/12/05 02:37:34;;;;;;;6.27;5.33;;;;;;;1.12;100.00;95752.31;5102453;28;20244;-53
2023/12/05 02:40:11;;;;;;;5.87;5.07;;;;;;;1.10;100.00;95741.16;5102564;28;20213;-54
2023/12/05 02:42:39;;;;;;;5.60;5.10;;;;;;;1.09;100.00;95736.09;5090792;28;20555;-53
2023/12/05 02:45:11;;;;;;;5.57;5.07;;;;;;;1.04;100.00;95736.41;5079093;28;20236;-53
2023/12/05 02:47:40;;;;;;;5.57;4.90;;;;;;;1.13;100.00;95737.53;5070789;28;20203;-54
2023/12/05 02:50:10;;;;;;;5.03;4.60;;;;;;;1.05;100.00;95745.03;5080007;28;20229;-53
2023/12/05 02:52:37;;;;;;;5.37;4.90;;;;;;;1.05;100.00;95745.88;5078532;28;20674;-51
2023/12/05 02:55:04;;;;;;;5.37;4.87;;;;;;;1.00;100.00;95743.59;5081334;28;20301;-54
2023/12/05 02:57:31;;;;;;;6.33;5.73;;;;;;;1.10;100.00;95758.59;5091686;28;20216;-53
2023/12/05 02:59:57;;;;;;;5.90;5.40;;;;;;;1.08;100.00;95755.25;5083048;28;20300;-54
2023/12/05 03:02:25;;;;;;;5.93;5.43;;;;;;;1.08;100.00;95747.44;5080493;28;20233;-52
2023/12/05 03:04:52;;;;;;;6.57;5.97;;;;;;;1.11;100.00;95760.22;5080354;28;20546;-54
2023/12/05 03:07:18;;;;;;;6.53;5.90;;;;;;;1.10;100.00;95758.59;5080367;28;20217;-54
2023/12/05 03:09:46;;;;;;;5.67;5.17;;;;;;;1.16;100.00;95753.78;5079803;28;20226;-54
2023/12/05 03:12:12;;;;;;;6.23;5.63;;;;;;;1.17;100.00;95754.63;5082682;28;20265;-54
2023/12/05 03:14:39;;;;;;;6.07;5.47;;;;;;;1.20;100.00;95750.03;5078900;28;20306;-53
2023/12/05 03:17:06;;;;;;;7.37;5.10;;;;;;;1.23;100.00;95746.34;5077101;28;20224;-53
2023/12/05 03:19:33;;;;;;;5.40;4.90;;;;;;;1.28;100.00;95762.47;5076896;28;20209;-53
2023/12/05 03:22:00;;;;;;;5.40;4.90;;;;;;;1.28;100.00;95750.28;5084036;28;20295;-53
2023/12/05 03:24:27;;;;;;;4.60;4.30;;;;;;;1.32;100.00;95748.31;5077511;28;20216;-53
2023/12/05 03:26:55;;;;;;;5.57;5.07;;;;;;;1.36;100.00;95752.34;5083210;28;20205;-54
2023/12/05 03:29:21;;;;;;;5.30;4.67;;;;;;;1.39;100.00;95759.94;5079518;28;20317;-54
2023/12/05 03:31:48;;;;;;;5.00;4.50;;;;;;;1.40;100.00;95764.22;5082724;28;20230;-52
2023/12/05 03:34:15;;;;;;;5.20;4.80;;;;;;;1.43;100.00;95767.44;5076509;28;20302;-54
2023/12/05 03:36:43;;;;;;;5.33;4.77;;;;;;;1.46;100.00;95769.81;5076163;28;20638;-53
2023/12/05 03:39:11;;;;;;;4.53;4.13;;;;;;;1.49;100.00;95768.75;5076485;28;20216;-53
2023/12/05 03:41:37;;;;;;;5.47;4.97;;;;;;;1.54;100.00;95768.44;5075514;28;20220;-52
2023/12/05 03:44:06;;;;;;;4.63;4.20;;;;;;;1.52;100.00;95768.56;5078158;28;20205;-54
2023/12/05 03:46:32;;;;;;;4.37;3.97;;;;;;;1.47;100.00;95768.06;5075239;28;20519;-53
2023/12/05 03:49:02;;;;;;;4.47;3.77;;;;;;;1.52;100.00;95765.97;5076779;28;20230;-55
2023/12/05 03:51:28;;;;;;;4.30;3.90;;;;;;;1.59;100.00;95772.41;5076474;28;20501;-54
2023/12/05 03:53:59;;;;;;;4.30;4.00;;;;;;;1.61;100.00;95775.72;5075795;28;20220;-52
2023/12/05 03:56:25;;;;;;;4.00;3.70;;;;;;;1.65;100.00;95782.38;5075641;28;20205;-53
2023/12/05 03:58:53;;;;;;;4.27;3.70;;;;;;;1.64;100.00;95772.88;5077074;28;20285;-54
2023/12/05 04:01:20;;;;;;;3.97;3.67;;;;;;;1.66;100.00;95771.03;5075975;28;20249;-52
2023/12/05 04:03:47;;;;;;;4.43;4.10;;;;;;;1.66;100.00;95771.03;5076412;28;20290;-53
2023/12/05 04:06:20;;;;;;;4.13;3.73;;;;;;;1.70;100.00;95764.63;5075759;28;20237;-53
2023/12/05 04:08:47;;;;;;;4.60;4.20;;;;;;;1.72;100.00;95762.75;5075533;28;20653;-52
2023/12/05 04:11:16;;;;;;;5.53;5.03;;;;;;;1.88;100.00;95762.44;5108843;28;20202;-52
2023/12/05 04:13:43;;;;;;;5.37;4.87;;;;;;;2.02;100.00;95764.88;5076889;28;20210;-53
2023/12/05 04:16:13;;;;;;;5.80;5.30;;;;;;;2.10;100.00;95752.13;5074611;28;20297;-54
2023/12/05 04:18:40;;;;;;;5.30;4.80;;;;;;;2.14;100.00;95747.50;5076231;28;20315;-53
2023/12/05 04:21:09;;;;;;;5.40;4.90;;;;;;;2.20;100.00;95747.88;5075873;28;20202;-52
2023/12/05 04:23:36;;;;;;;5.17;4.73;;;;;;;2.28;100.00;95749.91;5075104;28;20546;-54
2023/12/05 04:26:02;;;;;;;5.13;4.73;;;;;;;2.38;100.00;95753.50;5075641;28;20293;-54
2023/12/05 04:28:33;;;;;;;5.07;4.67;;;;;;;2.40;100.00;95757.69;5075525;28;20194;-54
2023/12/05 04:31:01;;;;;;;5.07;4.67;;;;;;;2.34;100.00;95754.66;5072758;28;20221;-54
2023/12/05 04:33:28;;;;;;;4.97;4.57;;;;;;;2.35;100.00;95751.13;5075401;28;20294;-52
2023/12/05 04:35:55;;;;;;;5.60;5.03;;;;;;;2.41;100.00;95755.88;5074616;28;20310;-54
2023/12/05 04:38:22;;;;;;;5.07;4.63;;;;;;;2.38;100.00;95759.53;5075215;28;20206;-53
2023/12/05 04:40:48;;;;;;;4.50;4.17;;;;;;;2.45;100.00;95762.53;5074789;28;20195;-54
2023/12/05 04:43:16;;;;;;;4.03;3.73;;;;;;;2.49;100.00;95758.75;5090381;28;20250;-54
2023/12/05 04:45:43;;;;;;;4.73;4.33;;;;;;;2.50;100.00;95760.41;5094413;28;20204;-54
2023/12/05 04:48:10;;;;;;;6.23;4.30;;;;;;;2.47;100.00;95756.25;5090588;28;20293;-55
2023/12/05 04:50:37;;;;;;;4.30;3.90;;;;;;;2.59;100.00;95759.69;5082583;28;20232;-54
2023/12/05 04:53:03;;;;;;;4.20;3.80;;;;;;;2.46;100.00;95754.59;5075433;28;20730;-54
2023/12/05 04:55:30;;;;;;;4.53;4.13;;;;;;;2.53;100.00;95754.97;5074995;28;20216;-54
2023/12/05 04:57:57;;;;;;;4.33;3.93;;;;;;;2.47;100.00;95758.88;5075460;28;20294;-53
2023/12/05 05:00:23;;;;;;;4.40;4.00;;;;;;;2.51;100.00;95756.88;5065516;28;20194;-52
2023/12/05 05:02:52;;;;;;;4.13;3.80;;;;;;;2.51;100.00;95760.28;5074518;28;20325;-52
2023/12/05 05:05:19;;;;;;;4.70;4.30;;;;;;;2.36;100.00;95752.78;5064326;28;20238;-54
2023/12/05 05:07:46;;;;;;;4.50;3.37;;;;;;;2.38;100.00;95767.38;5075387;28;20224;-53
2023/12/05 05:10:13;;;;;;;4.20;3.80;;;;;;;2.40;100.00;95756.84;5064461;28;20746;-55
2023/12/05 05:12:42;;;;;;;4.20;3.80;;;;;;;2.41;100.00;95761.91;5074586;28;20222;-53
2023/12/05 05:15:09;;;;;;;4.73;3.50;;;;;;;2.40;100.00;95762.06;5075781;28;20289;-53
2023/12/05 05:17:36;;;;;;;4.17;3.77;;;;;;;2.31;100.00;95774.00;5074146;28;20275;-54
2023/12/05 05:20:04;;;;;;;3.97;3.67;;;;;;;2.28;100.00;95773.41;5074770;28;20212;-54
2023/12/05 05:22:31;;;;;;;3.93;3.40;;;;;;;2.30;100.00;95774.94;5074170;28;20202;-53
2023/12/05 05:24:58;;;;;;;4.60;3.90;;;;;;;2.27;100.00;95775.16;5074607;28;20297;-52
2023/12/05 05:27:24;;;;;;;4.03;3.63;;;;;;;2.29;100.00;95780.28;5074436;28;20293;-54
2023/12/05 05:29:51;;;;;;;3.93;3.57;;;;;;;2.27;100.00;95777.78;5071515;28;20250;-53
2023/12/05 05:32:18;;;;;;;3.53;3.23;;;;;;;2.20;100.00;95780.94;5072684;28;20213;-54
2023/12/05 05:34:44;;;;;;;4.53;3.33;;;;;;;2.20;100.00;95784.38;5074342;28;20213;-52
2023/12/05 05:37:12;;;;;;;4.97;3.63;;;;;;;2.17;100.00;95783.78;5071785;28;20209;-54
2023/12/05 05:39:39;;;;;;;4.10;3.70;;;;;;;2.14;100.00;95778.81;5074223;28;20285;-54
2023/12/05 05:42:06;;;;;;;4.03;3.67;;;;;;;2.10;100.00;95790.41;5073889;28;20699;-52
2023/12/05 05:44:32;;;;;;;5.20;3.80;;;;;;;2.14;100.00;95789.22;5076945;28;20221;-54
2023/12/05 05:46:59;;;;;;;3.73;3.43;;;;;;;2.09;100.00;95791.38;5075364;28;20538;-53
2023/12/05 05:49:26;;;;;;;4.83;3.40;;;;;;;2.15;100.00;95796.13;5078530;28;20202;-52
2023/12/05 05:51:52;;;;;;;4.67;3.70;;;;;;;2.11;100.00;95797.28;5078479;28;20230;-54
2023/12/05 05:54:21;;;;;;;3.70;2.90;;;;;;;2.10;100.00;95799.06;5078462;28;20206;-52
2023/12/05 05:56:48;;;;;;;3.77;3.47;;;;;;;2.12;100.00;95797.19;5078358;28;20214;-53
2023/12/05 05:59:15;;;;;;;3.50;3.20;;;;;;;2.17;100.00;95804.66;5078283;28;20199;-53
2023/12/05 06:01:41;;;;;;;3.73;3.30;;;;;;;2.19;100.00;95792.34;5077481;28;20253;-54
2023/12/05 06:04:08;;;;;;;4.47;3.27;;;;;;;2.17;100.00;95791.59;5078591;28;20206;-54
2023/12/05 06:06:35;;;;;;;3.50;3.20;;;;;;;2.12;100.00;95793.75;5078091;28;20220;-53
2023/12/05 06:09:02;;;;;;;3.33;2.97;;;;;;;2.14;100.00;95802.25;5077696;28;20294;-53
2023/12/05 06:11:29;;;;;;;3.33;3.13;;;;;;;2.21;100.00;95799.09;5077994;28;20230;-59
2023/12/05 06:13:56;;;;;;;3.83;3.27;;;;;;;2.17;100.00;95797.66;5079124;28;20202;-53
2023/12/05 06:16:23;;;;;;;3.73;3.43;;;;;;;2.21;100.00;95800.88;5077209;28;20515;-53
2023/12/05 06:18:49;;;;;;;3.53;3.23;;;;;;;2.27;100.00;95803.03;5077875;28;20209;-54
2023/12/05 06:21:16;;;;;;;3.63;3.23;;;;;;;2.25;100.00;95810.97;5077787;28;20217;-52
2023/12/05 06:23:43;;;;;;;4.47;3.40;;;;;;;2.26;100.00;95811.81;5076268;28;20274;-52
2023/12/05 06:26:10;;;;;;;3.77;3.47;;;;;;;2.20;100.00;95805.25;5076650;28;20627;-53
2023/12/05 06:28:38;;;;;;;4.00;3.60;;;;;;;2.26;100.00;95817.03;5077301;28;20531;-54
2023/12/05 06:31:06;;;;;;;3.70;3.40;;;;;;;2.28;100.00;95813.34;5077638;28;20256;-52
2023/12/05 06:33:33;;;;;;;4.50;4.10;;;;;;;2.27;100.00;95816.06;5077737;28;20214;-52
2023/12/05 06:36:02;;;;;;;5.33;4.23;;;;;;;2.33;100.00;95815.63;5078027;28;20297;-54
2023/12/05 06:38:28;;;;;;;4.17;3.83;;;;;;;2.29;100.00;95816.81;5077434;28;20582;-54
2023/12/05 06:40:57;;;;;;;4.67;4.27;;;;;;;2.24;100.00;95808.47;5078195;28;20233;-54
2023/12/05 06:43:24;;;;;;;4.33;4.03;;;;;;;2.25;100.00;95808.38;5074431;28;20297;-52
2023/12/05 06:45:52;;;;;;;5.10;3.83;;;;;;;2.29;100.00;95811.59;5085461;28;20545;-53
2023/12/05 06:48:20;;;;;;;4.17;3.87;;;;;;;2.30;100.00;95808.03;5078908;28;20645;-51
2023/12/05 06:50:48;;;;;;;4.27;3.87;;;;;;;2.38;100.00;95800.44;5077717;28;20566;-53
2023/12/05 06:53:14;;;;;;;3.57;3.37;;;;;;;2.44;100.00;95802.63;5077187;28;20207;-53
2023/12/05 06:55:42;;;;;;;4.73;3.80;;;;;;;2.62;100.00;95810.84;5078162;28;20206;-52
2023/12/05 06:58:08;;;;;;;4.30;3.47;;;;;;;2.71;100.00;95811.00;5077202;28;20238;-53
2023/12/05 07:00:36;;;;;;;4.07;3.57;;;;;;;2.82;100.00;95803.19;5077690;28;20260;-54
2023/12/05 07:03:05;;;;;;;4.03;3.70;;;;;;;2.92;100.00;95811.97;5076694;28;20242;-52
2023/12/05 07:05:31;;;;;;;5.10;3.60;;;;;;;3.03;100.00;95810.31;5077538;28;20210;-52
2023/12/05 07:08:02;;;;;;;3.93;3.63;;;;;;;3.04;100.00;95817.22;5077010;28;20293;-52
2023/12/05 07:10:31;;;;;;;3.83;3.53;;;;;;;3.17;100.00;95817.91;5077925;28;20313;-53
2023/12/05 07:12:58;;;;;;;3.80;3.50;;;;;;;3.20;100.00;95821.13;5077573;28;20210;-52
2023/12/05 07:15:27;;;;;;;3.80;3.50;;;;;;;3.17;100.00;95812.69;5076345;28;20238;-53
2023/12/05 07:17:54;;;;;;;3.73;3.43;;;;;;;3.18;100.00;95815.19;5078007;28;20203;-52
2023/12/05 07:20:23;;;;;;;3.90;3.60;;;;;;;3.26;100.00;95820.66;5094811;28;20187;-59
2023/12/05 07:22:51;;;;;;;4.00;3.00;;;;;;;3.38;100.00;95826.72;5097496;28;20203;-52
2023/12/05 07:25:19;;;;;;;3.70;3.40;;;;;;;3.49;100.00;95839.78;5098901;28;20206;-51
2023/12/05 07:27:47;;;;;;;3.70;3.40;;;;;;;3.52;100.00;95839.53;5099699;28;20210;-52
2023/12/05 07:30:16;;;;;;;3.00;2.80;;;;;;;3.70;100.00;95847.72;5096004;28;20270;-52
2023/12/05 07:32:44;;;;;;;3.73;3.10;;;;;;;3.71;100.00;95850.22;5099132;28;20209;-52
2023/12/05 07:35:11;;;;;;;3.47;3.17;;;;;;;3.76;100.00;95858.53;5099572;28;20218;-51
2023/12/05 07:37:39;;;;;;;4.87;3.20;;;;;;;3.79;100.00;95853.03;5092412;28;20285;-53
2023/12/05 07:40:08;;;;;;;3.67;3.37;;;;;;;3.80;100.00;95848.66;5083236;28;20298;-53
2023/12/05 07:42:34;;;;;;;3.10;2.90;;;;;;;3.65;100.00;95850.69;5080912;28;20213;-53
2023/12/05 07:45:06;;;;;;;3.60;3.23;;;;;;;3.59;100.00;95863.41;5087891;28;20212;-53
2023/12/05 07:47:33;;;;;;;3.27;2.93;;;;;;;3.51;100.00;95857.00;5079303;28;20534;-52
2023/12/05 07:50:01;;;;;;;3.20;2.90;;;;;;;3.51;100.00;95854.38;5077158;28;20242;-54
2023/12/05 07:52:28;;;;;;;3.37;3.00;;;;;;;3.47;100.00;95862.59;5077521;28;20206;-53
2023/12/05 07:54:58;;;;;;;3.13;2.87;;;;;;;3.39;100.00;95865.81;5077382;28;20237;-53
2023/12/05 07:57:25;;;;;;;3.33;3.03;;;;;;;3.28;100.00;95867.56;5077501;28;20242;-54
2023/12/05 07:59:52;;;;;;;2.97;2.77;;;;;;;3.22;100.00;95858.44;5076796;28;20290;-53
2023/12/05 08:02:18;;;;;;;2.30;2.20;;;;;;;3.28;100.00;95873.63;5076454;28;20691;-51
2023/12/05 08:04:45;;;;;;;2.80;2.60;;;;;;;3.30;100.00;95883.94;5078088;28;20312;-53
2023/12/05 08:07:12;;;;;;;2.50;2.30;;;;;;;3.30;100.00;95876.94;5077334;28;20293;-53
2023/12/05 08:09:41;;;;;;;2.80;2.60;;;;;;;3.30;100.00;95881.34;5074720;28;20669;-53
2023/12/05 08:12:09;;;;;;;2.80;2.60;;;;;;;3.24;100.00;95887.03;5075814;28;20555;-52
2023/12/05 08:14:36;;;;;;;2.20;2.10;;;;;;;3.30;100.00;95890.00;5076737;28;20216;-52
2023/12/05 08:17:04;;;;;;;2.23;2.03;;;;;;;3.48;100.00;95893.00;5076257;28;20635;-51
2023/12/05 08:19:31;;;;;;;1.80;1.70;;;;;;;3.63;100.00;95890.97;5076586;28;20206;-52
2023/12/05 08:21:58;;;;;;;2.10;2.00;;;;;;;3.67;100.00;95900.25;5076382;28;20194;-52
2023/12/05 08:24:24;;;;;;;2.03;1.93;;;;;;;3.77;100.00;95909.88;5075730;28;20210;-51
2023/12/05 08:26:51;;;;;;;2.50;2.33;;;;;;;3.82;100.00;95909.53;5076650;28;20206;-51
2023/12/05 08:29:21;;;;;;;1.83;1.73;;;;;;;3.80;100.00;95912.25;5076965;28;20212;-52
2023/12/05 08:31:48;;;;;;;4.13;2.73;;;;;;;3.84;100.00;95920.69;5076208;28;20238;-52
2023/12/05 08:34:15;;;;;;;2.47;2.23;;;;;;;3.87;100.00;95923.88;5076122;28;20216;-51
2023/12/05 08:36:44;;;;;;;2.47;2.27;;;;;;;3.94;100.00;95930.31;5077423;28;20203;-51
2023/12/05 08:39:12;;;;;;;2.53;2.33;;;;;;;3.93;100.00;95926.00;5076632;28;20615;-52
2023/12/05 08:41:39;;;;;;;3.00;2.20;;;;;;;4.01;100.00;95933.25;5078555;28;20202;-52
2023/12/05 08:44:06;;;;;;;3.13;2.50;;;;;;;4.01;100.00;95918.41;5084530;28;20555;-53
2023/12/05 08:46:37;;;;;;;2.83;2.50;;;;;;;4.13;100.00;95918.41;5082257;28;20206;-52
2023/12/05 08:49:05;;;;;;;2.23;1.73;;;;;;;4.28;100.00;95914.56;5066333;28;20688;-51
2023/12/05 08:51:31;;;;;;;4.30;2.67;;;;;;;4.46;100.00;95915.72;5076640;28;20258;-53
2023/12/05 08:53:58;;;;;;;3.50;3.20;;;;;;;4.76;100.00;95909.75;5064910;28;20289;-51
2023/12/05 08:56:24;;;;;;;3.47;3.17;;;;;;;4.89;100.00;95905.16;5075721;28;20225;-51
2023/12/05 08:58:51;;;;;;;4.23;3.60;;;;;;;5.00;100.00;95905.94;5075622;28;20299;-51
2023/12/05 09:01:19;;;;;;;3.33;3.10;;;;;;;5.15;100.00;95903.00;5075831;28;20291;-52
2023/12/05 09:03:48;;;;;;;3.33;3.13;;;;;;;5.08;100.00;95912.34;5077049;28;20206;-52
2023/12/05 09:06:14;;;;;;;3.47;3.17;;;;;;;5.22;100.00;95914.63;5075948;28;20210;-52
2023/12/05 09:08:41;;;;;;;2.93;2.73;;;;;;;5.29;100.00;95918.41;5074966;28;20525;-52
2023/12/05 09:11:08;;;;;;;3.23;3.03;;;;;;;5.25;100.00;95925.69;5075502;28;20238;-52
2023/12/05 09:13:35;;;;;;;3.50;3.20;;;;;;;5.41;100.00;95925.25;5065842;28;20210;-52
2023/12/05 09:16:02;;;;;;;2.70;2.50;;;;;;;5.54;100.00;95928.50;5073270;28;20210;-52
2023/12/05 09:18:29;;;;;;;4.03;2.97;;;;;;;5.64;100.00;95932.00;5065548;28;20210;-52
2023/12/05 09:20:58;;;;;;;3.10;2.90;;;;;;;5.56;100.00;95934.47;5074985;28;20691;-54
2023/12/05 09:23:25;;;;;;;3.00;2.70;;;;;;;5.56;100.00;95934.47;5074041;28;20313;-52
2023/12/05 09:25:53;;;;;;;2.87;2.67;;;;;;;5.61;100.00;95941.91;5074824;28;20209;-53
2023/12/05 09:28:19;;;;;;;2.57;2.37;;;;;;;5.58;100.00;95943.03;5075285;28;20609;-53
2023/12/05 09:30:48;;;;;;;2.47;2.27;;;;;;;5.47;100.00;95946.53;5074836;28;20309;-54
2023/12/05 09:33:15;;;;;;;3.73;2.83;;;;;;;5.45;100.00;95947.66;5074902;28;20206;-53
2023/12/05 09:35:42;;;;;;;2.40;2.20;;;;;;;5.79;100.00;95946.44;5074874;28;20210;-53
2023/12/05 09:38:12;;;;;;;2.73;2.50;;;;;;;5.78;100.00;95938.69;5075093;28;20211;-54
2023/12/05 09:40:39;;;;;;;2.80;2.60;;;;;;;5.82;100.00;95950.59;5076952;28;20210;-54
2023/12/05 09:43:09;;;;;;;3.33;2.53;;;;;;;5.90;100.00;95948.19;5074854;28;20241;-53
2023/12/05 09:45:39;;;;;;;2.83;2.20;;;;;;;5.96;100.00;95943.22;5086122;28;20295;-53
2023/12/05 09:48:09;;;;;;;2.00;1.90;;;;;;;6.15;100.00;95939.03;5071737;28;20206;-53
2023/12/05 09:50:42;;;;;;;2.03;1.90;;;;;;;6.47;100.00;95944.91;5074286;28;20211;-53
2023/12/05 09:53:10;;;;;;;1.80;1.70;;;;;;;6.57;100.00;95939.69;5082312;28;20202;-54
2023/12/05 09:55:39;;;;;;;2.00;1.90;;;;;;;6.36;100.00;95939.78;5096504;28;20190;-53
2023/12/05 09:58:08;;;;;;;2.10;1.90;;;;;;;6.48;100.00;95934.25;5096688;28;20254;-53
2023/12/05 10:00:35;;;;;;;2.47;2.10;;;;;;;6.72;100.00;95931.28;5090908;28;20194;-52
2023/12/05 10:03:06;;;;;;;1.63;1.50;;;;;;;6.98;100.00;95927.13;5076655;28;20248;-53
2023/12/05 10:05:35;;;;;;;1.77;1.53;;;;;;;7.18;100.00;95921.88;5075639;28;20206;-53
2023/12/05 10:08:05;;;;;;;2.20;2.10;;;;;;;7.82;100.00;95917.59;5074706;28;20649;-52
2023/12/05 10:10:33;;;;;;;2.97;1.93;;;;;;;8.40;100.00;95918.16;5074912;28;20671;-52
2023/12/05 10:13:01;;;;;;;1.90;1.80;;;;;;;9.05;99.12;95903.00;5074506;28;20746;-53
2023/12/05 10:15:27;;;;;;;2.27;2.07;;;;;;;8.97;98.81;95906.41;5074913;28;20206;-54
2023/12/05 10:17:54;;;;;;;2.17;1.93;;;;;;;8.91;98.70;95903.53;5074490;28;20293;-55
2023/12/05 10:20:21;;;;;;;1.93;1.80;;;;;;;8.69;96.57;95898.69;5074804;28;20229;-55
2023/12/05 10:22:48;;;;;;;1.60;1.50;;;;;;;9.12;92.79;95913.78;5073742;28;20214;-54
2023/12/05 10:25:16;;;;;;;1.53;1.43;;;;;;;9.00;91.23;95906.09;5074389;28;20221;-54
2023/12/05 10:27:44;;;;;;;1.70;1.57;;;;;;;8.63;93.53;95913.31;5071063;28;20207;-54
2023/12/05 10:30:11;;;;;;;1.70;1.60;;;;;;;8.38;94.05;95914.03;5074141;28;20213;-54
2023/12/05 10:32:38;;;;;;;1.33;1.23;;;;;;;7.88;94.12;95910.91;5074364;28;20234;-52
2023/12/05 10:35:06;;;;;;;3.20;1.57;;;;;;;7.28;100.00;95909.53;5077068;28;20217;-53
2023/12/05 10:37:32;;;;;;;1.93;1.50;;;;;;;7.25;100.00;95912.44;5076820;28;20218;-54
2023/12/05 10:40:00;;;;;;;2.30;1.63;;;;;;;6.99;100.00;95907.75;5077772;28;20229;-52
2023/12/05 10:42:28;;;;;;;1.40;1.30;;;;;;;6.76;100.00;95913.44;5077373;28;20224;-54
2023/12/05 10:44:56;;;;;;;1.43;1.30;;;;;;;6.81;100.00;95908.59;5087171;28;20215;-54
2023/12/05 10:47:25;;;;;;;2.37;1.20;;;;;;;6.56;100.00;95899.44;5087690;28;20198;-53
2023/12/05 10:49:51;;;;;;;1.40;1.30;;;;;;;6.57;100.00;95911.63;5081473;28;20213;-53
2023/12/05 10:52:18;;;;;;;2.20;1.80;;;;;;;6.52;100.00;95913.00;5081801;28;20320;-53
2023/12/05 10:54:45;;;;;;;1.97;1.87;;;;;;;6.48;100.00;95904.56;5080865;28;20205;-54
2023/12/05 10:57:12;;;;;;;1.57;1.23;;;;;;;6.52;100.00;95911.19;5077856;28;20210;-51
2023/12/05 10:59:40;;;;;;;1.80;1.57;;;;;;;6.40;100.00;95901.78;5080006;28;20206;-54
2023/12/05 11:02:13;;;;;;;1.60;1.50;;;;;;;6.43;100.00;95904.13;5069597;28;20712;-54
2023/12/05 11:04:40;;;;;;;2.07;1.60;;;;;;;6.32;100.00;95904.25;5079894;28;20206;-53
2023/12/05 11:07:07;;;;;;;1.90;1.80;;;;;;;6.59;100.00;95909.66;5083768;28;20213;-53
2023/12/05 11:09:33;;;;;;;2.23;1.83;;;;;;;6.79;100.00;95911.38;5084577;28;20297;-52
2023/12/05 11:12:02;;;;;;;1.83;1.73;;;;;;;6.89;100.00;95900.84;5078553;28;20222;-54
2023/12/05 11:14:30;;;;;;;2.13;1.43;;;;;;;7.09;100.00;95901.66;5077167;28;20672;-54
2023/12/05 11:16:57;;;;;;;1.70;1.60;;;;;;;7.13;100.00;95903.03;5078244;28;20715;-52
2023/12/05 11:19:34;;;;;;;1.73;1.63;;;;;;;7.55;100.00;95896.44;5078538;28;20206;-54
2023/12/05 11:22:06;;;;;;;2.57;1.90;;;;;;;7.54;100.00;95899.25;5086063;28;20301;-55
2023/12/05 11:25:07;;;;;;;2.57;2.13;;;;;;;7.41;100.00;95904.78;5084750;28;20198;-54
2023/12/05 11:27:45;;;;;;;1.90;1.80;;;;;;;7.46;99.10;95899.94;5090058;28;20270;-55
2023/12/05 11:30:33;;;;;;;2.47;1.90;;;;;;;7.04;100.00;95899.47;5092528;28;20202;-53
2023/12/05 11:33:08;;;;;;;2.67;1.90;;;;;;;6.96;100.00;95896.69;5082439;28;20246;-54
2023/12/05 11:35:47;;;;;;;3.27;1.80;;;;;;;6.97;100.00;95914.97;5084906;28;20206;-53